sensor_id;sensor_type;location;lat;lon;timestamp;P1;durP1;ratioP1;P2;durP2;ratioP2
18592;SDS011;9426;54.118;17.948;2023-02-03T00:00:10;20.53;;;6.70;;
18592;SDS011;9426;54.118;17.948;2023-02-03T00:05:35;16.40;;;6.97;;
18592;SDS011;9426;54.118;17.948;2023-02-03T00:10:59;19.63;;;7.43;;
18592;SDS011;9426;54.118;17.948;2023-02-03T00:16:24;14.40;;;5.97;;
18592;SDS011;9426;54.118;17.948;2023-02-03T00:21:48;13.03;;;5.60;;
18592;SDS011;9426;54.118;17.948;2023-02-03T00:27:12;14.87;;;5.30;;
18592;SDS011;9426;54.118;17.948;2023-02-03T00:32:37;10.97;;;4.60;;
18592;SDS011;9426;54.118;17.948;2023-02-03T00:38:01;8.73;;;4.50;;
18592;SDS011;9426;54.118;17.948;2023-02-03T00:43:25;13.50;;;4.47;;
18592;SDS011;9426;54.118;17.948;2023-02-03T00:48:52;11.67;;;4.60;;
18592;SDS011;9426;54.118;17.948;2023-02-03T00:54:16;13.13;;;5.10;;
18592;SDS011;9426;54.118;17.948;2023-02-03T00:59:42;12.07;;;3.77;;
18592;SDS011;9426;54.118;17.948;2023-02-03T01:05:13;15.10;;;4.17;;
18592;SDS011;9426;54.118;17.948;2023-02-03T01:10:37;10.53;;;4.00;;
18592;SDS011;9426;54.118;17.948;2023-02-03T01:16:02;10.20;;;4.00;;
18592;SDS011;9426;54.118;17.948;2023-02-03T01:21:30;7.30;;;3.47;;
18592;SDS011;9426;54.118;17.948;2023-02-03T01:26:56;8.50;;;3.97;;
18592;SDS011;9426;54.118;17.948;2023-02-03T01:32:21;11.57;;;4.17;;
18592;SDS011;9426;54.118;17.948;2023-02-03T01:37:46;7.60;;;3.23;;
18592;SDS011;9426;54.118;17.948;2023-02-03T01:43:10;7.07;;;3.00;;
18592;SDS011;9426;54.118;17.948;2023-02-03T01:48:52;10.57;;;3.80;;
18592;SDS011;9426;54.118;17.948;2023-02-03T01:54:19;6.30;;;3.30;;
18592;SDS011;9426;54.118;17.948;2023-02-03T01:59:46;10.17;;;3.70;;
18592;SDS011;9426;54.118;17.948;2023-02-03T02:05:13;13.37;;;4.50;;
18592;SDS011;9426;54.118;17.948;2023-02-03T02:10:43;8.10;;;3.73;;
18592;SDS011;9426;54.118;17.948;2023-02-03T02:16:09;9.50;;;3.67;;
18592;SDS011;9426;54.118;17.948;2023-02-03T02:21:40;11.00;;;3.57;;
18592;SDS011;9426;54.118;17.948;2023-02-03T02:27:36;12.10;;;3.90;;
18592;SDS011;9426;54.118;17.948;2023-02-03T02:33:30;8.17;;;3.70;;
18592;SDS011;9426;54.118;17.948;2023-02-03T02:39:04;6.10;;;3.47;;
18592;SDS011;9426;54.118;17.948;2023-02-03T02:44:34;17.00;;;4.20;;
18592;SDS011;9426;54.118;17.948;2023-02-03T02:50:07;8.00;;;3.53;;
18592;SDS011;9426;54.118;17.948;2023-02-03T02:55:38;7.33;;;3.70;;
18592;SDS011;9426;54.118;17.948;2023-02-03T03:01:04;7.17;;;3.20;;
18592;SDS011;9426;54.118;17.948;2023-02-03T03:06:33;9.67;;;3.37;;
18592;SDS011;9426;54.118;17.948;2023-02-03T03:12:01;10.10;;;3.77;;
18592;SDS011;9426;54.118;17.948;2023-02-03T03:17:31;8.87;;;4.30;;
18592;SDS011;9426;54.118;17.948;2023-02-03T03:23:01;10.03;;;4.23;;
18592;SDS011;9426;54.118;17.948;2023-02-03T03:28:29;14.57;;;5.60;;
18592;SDS011;9426;54.118;17.948;2023-02-03T03:34:02;11.80;;;5.83;;
18592;SDS011;9426;54.118;17.948;2023-02-03T03:39:30;13.00;;;6.30;;
18592;SDS011;9426;54.118;17.948;2023-02-03T03:45:00;16.90;;;8.13;;
18592;SDS011;9426;54.118;17.948;2023-02-03T03:50:28;20.90;;;8.40;;
18592;SDS011;9426;54.118;17.948;2023-02-03T03:55:56;19.37;;;8.67;;
18592;SDS011;9426;54.118;17.948;2023-02-03T04:01:23;20.03;;;9.17;;
18592;SDS011;9426;54.118;17.948;2023-02-03T04:06:47;22.73;;;9.80;;
18592;SDS011;9426;54.118;17.948;2023-02-03T04:12:15;21.77;;;10.13;;
18592;SDS011;9426;54.118;17.948;2023-02-03T04:17:43;26.10;;;11.83;;
18592;SDS011;9426;54.118;17.948;2023-02-03T04:23:07;34.80;;;14.77;;
18592;SDS011;9426;54.118;17.948;2023-02-03T04:28:33;24.63;;;13.27;;
18592;SDS011;9426;54.118;17.948;2023-02-03T04:33:56;25.57;;;11.90;;
18592;SDS011;9426;54.118;17.948;2023-02-03T04:39:20;22.80;;;10.90;;
18592;SDS011;9426;54.118;17.948;2023-02-03T04:44:45;23.17;;;10.30;;
18592;SDS011;9426;54.118;17.948;2023-02-03T04:50:09;25.57;;;11.53;;
18592;SDS011;9426;54.118;17.948;2023-02-03T04:55:32;23.80;;;10.57;;
18592;SDS011;9426;54.118;17.948;2023-02-03T05:00:57;17.70;;;8.43;;
18592;SDS011;9426;54.118;17.948;2023-02-03T05:06:27;25.50;;;9.13;;
18592;SDS011;9426;54.118;17.948;2023-02-03T05:11:52;20.83;;;8.83;;
18592;SDS011;9426;54.118;17.948;2023-02-03T05:17:17;18.17;;;8.47;;
18592;SDS011;9426;54.118;17.948;2023-02-03T05:22:41;14.87;;;7.93;;
18592;SDS011;9426;54.118;17.948;2023-02-03T05:28:05;17.30;;;7.90;;
18592;SDS011;9426;54.118;17.948;2023-02-03T05:33:30;15.77;;;7.50;;
18592;SDS011;9426;54.118;17.948;2023-02-03T05:38:54;13.67;;;6.80;;
18592;SDS011;9426;54.118;17.948;2023-02-03T05:44:20;23.30;;;8.07;;
18592;SDS011;9426;54.118;17.948;2023-02-03T05:49:51;16.70;;;7.80;;
18592;SDS011;9426;54.118;17.948;2023-02-03T05:55:15;14.30;;;6.80;;
18592;SDS011;9426;54.118;17.948;2023-02-03T06:00:39;18.07;;;7.27;;
18592;SDS011;9426;54.118;17.948;2023-02-03T06:06:04;15.73;;;7.50;;
18592;SDS011;9426;54.118;17.948;2023-02-03T06:11:29;18.27;;;7.13;;
18592;SDS011;9426;54.118;17.948;2023-02-03T06:16:53;17.73;;;7.57;;
18592;SDS011;9426;54.118;17.948;2023-02-03T06:22:19;17.57;;;6.50;;
18592;SDS011;9426;54.118;17.948;2023-02-03T06:27:42;11.73;;;5.60;;
18592;SDS011;9426;54.118;17.948;2023-02-03T06:33:06;10.10;;;5.87;;
18592;SDS011;9426;54.118;17.948;2023-02-03T06:38:31;17.30;;;6.47;;
18592;SDS011;9426;54.118;17.948;2023-02-03T06:43:55;12.00;;;5.33;;
18592;SDS011;9426;54.118;17.948;2023-02-03T06:49:19;11.23;;;5.17;;
18592;SDS011;9426;54.118;17.948;2023-02-03T06:54:44;14.83;;;5.27;;
18592;SDS011;9426;54.118;17.948;2023-02-03T07:00:08;10.00;;;5.43;;
18592;SDS011;9426;54.118;17.948;2023-02-03T07:05:35;15.73;;;6.23;;
18592;SDS011;9426;54.118;17.948;2023-02-03T07:11:00;20.40;;;6.80;;
18592;SDS011;9426;54.118;17.948;2023-02-03T07:16:24;10.83;;;6.03;;
18592;SDS011;9426;54.118;17.948;2023-02-03T07:21:49;16.47;;;7.07;;
18592;SDS011;9426;54.118;17.948;2023-02-03T07:27:14;14.20;;;6.87;;
18592;SDS011;9426;54.118;17.948;2023-02-03T07:32:38;15.07;;;6.87;;
18592;SDS011;9426;54.118;17.948;2023-02-03T07:38:02;14.77;;;6.70;;
18592;SDS011;9426;54.118;17.948;2023-02-03T07:43:27;14.47;;;6.73;;
18592;SDS011;9426;54.118;17.948;2023-02-03T07:48:51;16.27;;;6.87;;
18592;SDS011;9426;54.118;17.948;2023-02-03T07:54:14;16.80;;;7.23;;
18592;SDS011;9426;54.118;17.948;2023-02-03T07:59:40;11.50;;;6.33;;
18592;SDS011;9426;54.118;17.948;2023-02-03T08:05:04;21.13;;;6.73;;
18592;SDS011;9426;54.118;17.948;2023-02-03T08:10:28;22.03;;;7.83;;
18592;SDS011;9426;54.118;17.948;2023-02-03T08:15:53;13.80;;;7.23;;
18592;SDS011;9426;54.118;17.948;2023-02-03T08:21:17;16.33;;;8.20;;
18592;SDS011;9426;54.118;17.948;2023-02-03T08:26:41;15.23;;;7.33;;
18592;SDS011;9426;54.118;17.948;2023-02-03T08:32:06;14.87;;;7.27;;
18592;SDS011;9426;54.118;17.948;2023-02-03T08:37:31;16.30;;;7.37;;
18592;SDS011;9426;54.118;17.948;2023-02-03T08:42:55;17.57;;;7.33;;
18592;SDS011;9426;54.118;17.948;2023-02-03T08:48:20;11.13;;;5.83;;
18592;SDS011;9426;54.118;17.948;2023-02-03T08:53:44;15.27;;;6.17;;
18592;SDS011;9426;54.118;17.948;2023-02-03T08:59:08;15.50;;;7.10;;
18592;SDS011;9426;54.118;17.948;2023-02-03T09:04:33;17.87;;;8.20;;
18592;SDS011;9426;54.118;17.948;2023-02-03T09:09:57;12.87;;;6.70;;
18592;SDS011;9426;54.118;17.948;2023-02-03T09:15:21;15.60;;;6.63;;
18592;SDS011;9426;54.118;17.948;2023-02-03T09:20:47;13.70;;;6.13;;
18592;SDS011;9426;54.118;17.948;2023-02-03T09:26:11;14.73;;;6.13;;
18592;SDS011;9426;54.118;17.948;2023-02-03T09:31:36;15.87;;;7.57;;
18592;SDS011;9426;54.118;17.948;2023-02-03T09:37:02;14.80;;;7.23;;
18592;SDS011;9426;54.118;17.948;2023-02-03T09:42:38;13.27;;;6.73;;
18592;SDS011;9426;54.118;17.948;2023-02-03T09:48:18;13.13;;;6.50;;
18592;SDS011;9426;54.118;17.948;2023-02-03T09:53:49;11.17;;;6.00;;
18592;SDS011;9426;54.118;17.948;2023-02-03T09:59:19;14.53;;;6.30;;
18592;SDS011;9426;54.118;17.948;2023-02-03T10:04:46;12.63;;;6.13;;
18592;SDS011;9426;54.118;17.948;2023-02-03T10:10:20;11.63;;;6.30;;
18592;SDS011;9426;54.118;17.948;2023-02-03T10:15:58;12.03;;;5.77;;
18592;SDS011;9426;54.118;17.948;2023-02-03T10:21:32;11.80;;;5.70;;
18592;SDS011;9426;54.118;17.948;2023-02-03T10:26:59;10.77;;;5.43;;
18592;SDS011;9426;54.118;17.948;2023-02-03T10:32:23;12.17;;;6.03;;
18592;SDS011;9426;54.118;17.948;2023-02-03T10:37:49;9.87;;;5.77;;
18592;SDS011;9426;54.118;17.948;2023-02-03T10:43:19;11.53;;;5.87;;
18592;SDS011;9426;54.118;17.948;2023-02-03T10:49:00;10.20;;;5.43;;
18592;SDS011;9426;54.118;17.948;2023-02-03T10:54:28;14.17;;;6.70;;
18592;SDS011;9426;54.118;17.948;2023-02-03T11:00:02;13.43;;;6.43;;
18592;SDS011;9426;54.118;17.948;2023-02-03T11:05:29;10.97;;;6.33;;
18592;SDS011;9426;54.118;17.948;2023-02-03T11:10:55;12.93;;;5.70;;
18592;SDS011;9426;54.118;17.948;2023-02-03T11:16:27;11.27;;;5.80;;
18592;SDS011;9426;54.118;17.948;2023-02-03T11:21:52;9.70;;;5.90;;
18592;SDS011;9426;54.118;17.948;2023-02-03T11:27:17;9.53;;;5.70;;
18592;SDS011;9426;54.118;17.948;2023-02-03T11:32:45;12.40;;;6.27;;
18592;SDS011;9426;54.118;17.948;2023-02-03T11:38:10;10.00;;;5.73;;
18592;SDS011;9426;54.118;17.948;2023-02-03T11:43:52;11.60;;;6.30;;
18592;SDS011;9426;54.118;17.948;2023-02-03T11:55:24;17.07;;;10.43;;
18592;SDS011;9426;54.118;17.948;2023-02-03T12:00:57;12.83;;;7.73;;
18592;SDS011;9426;54.118;17.948;2023-02-03T12:06:32;12.23;;;7.10;;
18592;SDS011;9426;54.118;17.948;2023-02-03T12:12:20;13.47;;;7.37;;
18592;SDS011;9426;54.118;17.948;2023-02-03T12:18:05;10.57;;;6.77;;
18592;SDS011;9426;54.118;17.948;2023-02-03T12:23:40;9.53;;;6.10;;
18592;SDS011;9426;54.118;17.948;2023-02-03T12:29:11;11.97;;;6.50;;
18592;SDS011;9426;54.118;17.948;2023-02-03T12:34:38;9.37;;;5.83;;
18592;SDS011;9426;54.118;17.948;2023-02-03T12:40:12;11.00;;;6.43;;
18592;SDS011;9426;54.118;17.948;2023-02-03T12:45:49;9.83;;;6.00;;
18592;SDS011;9426;54.118;17.948;2023-02-03T12:51:17;11.23;;;5.77;;
18592;SDS011;9426;54.118;17.948;2023-02-03T12:56:51;15.27;;;7.23;;
18592;SDS011;9426;54.118;17.948;2023-02-03T13:02:23;10.13;;;5.83;;
18592;SDS011;9426;54.118;17.948;2023-02-03T13:07:51;10.00;;;5.13;;
18592;SDS011;9426;54.118;17.948;2023-02-03T13:13:22;9.07;;;5.13;;
18592;SDS011;9426;54.118;17.948;2023-02-03T13:18:55;14.47;;;6.73;;
18592;SDS011;9426;54.118;17.948;2023-02-03T13:24:23;12.27;;;6.10;;
18592;SDS011;9426;54.118;17.948;2023-02-03T13:29:53;17.87;;;8.03;;
18592;SDS011;9426;54.118;17.948;2023-02-03T13:35:35;10.87;;;4.93;;
18592;SDS011;9426;54.118;17.948;2023-02-03T13:41:15;16.70;;;7.37;;
18592;SDS011;9426;54.118;17.948;2023-02-03T13:46:45;39.57;;;12.90;;
18592;SDS011;9426;54.118;17.948;2023-02-03T13:52:23;27.50;;;13.60;;
18592;SDS011;9426;54.118;17.948;2023-02-03T13:57:49;18.93;;;9.90;;
18592;SDS011;9426;54.118;17.948;2023-02-03T14:03:14;33.60;;;15.87;;
18592;SDS011;9426;54.118;17.948;2023-02-03T14:08:46;12.90;;;8.10;;
18592;SDS011;9426;54.118;17.948;2023-02-03T14:26:15;17.00;;;7.07;;
18592;SDS011;9426;54.118;17.948;2023-02-03T14:31:53;28.07;;;10.57;;
18592;SDS011;9426;54.118;17.948;2023-02-03T14:37:20;15.53;;;8.60;;
18592;SDS011;9426;54.118;17.948;2023-02-03T14:48:46;19.40;;;8.70;;
18592;SDS011;9426;54.118;17.948;2023-02-03T14:54:31;20.87;;;10.20;;
18592;SDS011;9426;54.118;17.948;2023-02-03T15:00:24;20.83;;;10.87;;
18592;SDS011;9426;54.118;17.948;2023-02-03T15:05:52;25.00;;;11.63;;
18592;SDS011;9426;54.118;17.948;2023-02-03T15:11:27;21.67;;;12.03;;
18592;SDS011;9426;54.118;17.948;2023-02-03T15:16:55;55.93;;;25.03;;
18592;SDS011;9426;54.118;17.948;2023-02-03T15:22:20;116.77;;;51.13;;
18592;SDS011;9426;54.118;17.948;2023-02-03T15:27:45;99.80;;;35.87;;
18592;SDS011;9426;54.118;17.948;2023-02-03T15:33:12;47.93;;;22.20;;
18592;SDS011;9426;54.118;17.948;2023-02-03T15:38:41;41.60;;;19.20;;
18592;SDS011;9426;54.118;17.948;2023-02-03T15:44:10;36.60;;;17.03;;
18592;SDS011;9426;54.118;17.948;2023-02-03T15:49:55;77.70;;;32.03;;
18592;SDS011;9426;54.118;17.948;2023-02-03T15:55:27;84.90;;;35.80;;
18592;SDS011;9426;54.118;17.948;2023-02-03T16:00:55;41.80;;;18.97;;
18592;SDS011;9426;54.118;17.948;2023-02-03T16:06:25;42.60;;;18.90;;
18592;SDS011;9426;54.118;17.948;2023-02-03T16:17:39;41.87;;;19.73;;
18592;SDS011;9426;54.118;17.948;2023-02-03T16:23:14;39.50;;;17.63;;
18592;SDS011;9426;54.118;17.948;2023-02-03T16:28:41;51.93;;;24.77;;
18592;SDS011;9426;54.118;17.948;2023-02-03T16:34:23;70.30;;;30.60;;
18592;SDS011;9426;54.118;17.948;2023-02-03T16:40:05;49.13;;;22.07;;
18592;SDS011;9426;54.118;17.948;2023-02-03T16:45:52;73.03;;;32.73;;
18592;SDS011;9426;54.118;17.948;2023-02-03T16:51:37;68.53;;;30.63;;
18592;SDS011;9426;54.118;17.948;2023-02-03T16:57:05;76.93;;;32.07;;
18592;SDS011;9426;54.118;17.948;2023-02-03T17:02:29;83.30;;;37.40;;
18592;SDS011;9426;54.118;17.948;2023-02-03T17:07:54;85.77;;;42.90;;
18592;SDS011;9426;54.118;17.948;2023-02-03T17:13:20;78.70;;;38.53;;
18592;SDS011;9426;54.118;17.948;2023-02-03T17:18:45;55.43;;;27.03;;
18592;SDS011;9426;54.118;17.948;2023-02-03T17:24:09;96.20;;;43.57;;
18592;SDS011;9426;54.118;17.948;2023-02-03T17:29:35;119.00;;;54.93;;
18592;SDS011;9426;54.118;17.948;2023-02-03T17:34:59;61.20;;;30.43;;
18592;SDS011;9426;54.118;17.948;2023-02-03T17:40:23;57.60;;;27.73;;
18592;SDS011;9426;54.118;17.948;2023-02-03T17:46:06;80.10;;;35.73;;
18592;SDS011;9426;54.118;17.948;2023-02-03T17:51:47;136.37;;;58.83;;
18592;SDS011;9426;54.118;17.948;2023-02-03T17:57:29;82.73;;;42.03;;
18592;SDS011;9426;54.118;17.948;2023-02-03T18:02:55;55.37;;;28.27;;
18592;SDS011;9426;54.118;17.948;2023-02-03T18:08:19;45.07;;;25.47;;
18592;SDS011;9426;54.118;17.948;2023-02-03T18:13:46;44.93;;;23.43;;
18592;SDS011;9426;54.118;17.948;2023-02-03T18:19:13;47.03;;;24.27;;
18592;SDS011;9426;54.118;17.948;2023-02-03T18:24:38;43.17;;;22.60;;
18592;SDS011;9426;54.118;17.948;2023-02-03T18:30:05;39.57;;;18.90;;
18592;SDS011;9426;54.118;17.948;2023-02-03T18:35:33;44.00;;;21.40;;
18592;SDS011;9426;54.118;17.948;2023-02-03T18:40:57;35.77;;;18.53;;
18592;SDS011;9426;54.118;17.948;2023-02-03T18:46:22;41.23;;;19.67;;
18592;SDS011;9426;54.118;17.948;2023-02-03T18:51:48;38.00;;;18.20;;
18592;SDS011;9426;54.118;17.948;2023-02-03T18:57:12;40.50;;;20.30;;
18592;SDS011;9426;54.118;17.948;2023-02-03T19:02:37;27.97;;;16.00;;
18592;SDS011;9426;54.118;17.948;2023-02-03T19:08:03;36.00;;;18.87;;
18592;SDS011;9426;54.118;17.948;2023-02-03T19:13:27;29.23;;;14.93;;
18592;SDS011;9426;54.118;17.948;2023-02-03T19:18:51;27.67;;;13.60;;
18592;SDS011;9426;54.118;17.948;2023-02-03T19:24:16;29.73;;;14.53;;
18592;SDS011;9426;54.118;17.948;2023-02-03T19:29:42;49.53;;;22.37;;
18592;SDS011;9426;54.118;17.948;2023-02-03T19:35:06;32.63;;;19.00;;
18592;SDS011;9426;54.118;17.948;2023-02-03T19:40:35;32.73;;;20.60;;
18592;SDS011;9426;54.118;17.948;2023-02-03T19:45:58;24.67;;;14.37;;
18592;SDS011;9426;54.118;17.948;2023-02-03T19:51:23;18.83;;;9.80;;
18592;SDS011;9426;54.118;17.948;2023-02-03T19:56:49;16.67;;;9.80;;
18592;SDS011;9426;54.118;17.948;2023-02-03T20:02:13;16.03;;;9.07;;
18592;SDS011;9426;54.118;17.948;2023-02-03T20:07:40;26.10;;;11.73;;
18592;SDS011;9426;54.118;17.948;2023-02-03T20:13:06;27.63;;;14.30;;
18592;SDS011;9426;54.118;17.948;2023-02-03T20:18:31;39.30;;;20.93;;
18592;SDS011;9426;54.118;17.948;2023-02-03T20:23:54;22.53;;;12.23;;
18592;SDS011;9426;54.118;17.948;2023-02-03T20:29:20;40.70;;;15.03;;
18592;SDS011;9426;54.118;17.948;2023-02-03T20:34:44;34.53;;;15.03;;
18592;SDS011;9426;54.118;17.948;2023-02-03T20:40:11;21.70;;;9.73;;
18592;SDS011;9426;54.118;17.948;2023-02-03T20:45:39;22.73;;;10.83;;
18592;SDS011;9426;54.118;17.948;2023-02-03T20:51:05;28.80;;;12.93;;
18592;SDS011;9426;54.118;17.948;2023-02-03T20:56:32;29.30;;;13.23;;
18592;SDS011;9426;54.118;17.948;2023-02-03T21:02:02;29.77;;;11.57;;
18592;SDS011;9426;54.118;17.948;2023-02-03T21:07:38;43.50;;;16.03;;
18592;SDS011;9426;54.118;17.948;2023-02-03T21:13:06;31.93;;;12.63;;
18592;SDS011;9426;54.118;17.948;2023-02-03T21:18:43;36.80;;;13.00;;
18592;SDS011;9426;54.118;17.948;2023-02-03T21:24:18;25.47;;;10.90;;
18592;SDS011;9426;54.118;17.948;2023-02-03T21:29:48;29.87;;;13.30;;
18592;SDS011;9426;54.118;17.948;2023-02-03T21:35:22;28.00;;;11.33;;
18592;SDS011;9426;54.118;17.948;2023-02-03T21:40:47;19.93;;;9.87;;
18592;SDS011;9426;54.118;17.948;2023-02-03T21:46:15;16.83;;;7.63;;
18592;SDS011;9426;54.118;17.948;2023-02-03T21:51:41;20.33;;;7.97;;
18592;SDS011;9426;54.118;17.948;2023-02-03T21:57:06;17.77;;;8.17;;
18592;SDS011;9426;54.118;17.948;2023-02-03T22:02:49;14.53;;;6.60;;
18592;SDS011;9426;54.118;17.948;2023-02-03T22:08:22;13.33;;;6.73;;
18592;SDS011;9426;54.118;17.948;2023-02-03T22:13:46;16.90;;;7.07;;
18592;SDS011;9426;54.118;17.948;2023-02-03T22:19:10;16.00;;;7.27;;
18592;SDS011;9426;54.118;17.948;2023-02-03T22:24:36;13.40;;;5.63;;
18592;SDS011;9426;54.118;17.948;2023-02-03T22:30:00;19.47;;;7.77;;
18592;SDS011;9426;54.118;17.948;2023-02-03T22:35:25;13.90;;;5.67;;
18592;SDS011;9426;54.118;17.948;2023-02-03T22:40:50;22.10;;;7.27;;
18592;SDS011;9426;54.118;17.948;2023-02-03T22:46:15;17.87;;;6.70;;
18592;SDS011;9426;54.118;17.948;2023-02-03T22:51:39;15.23;;;7.03;;
18592;SDS011;9426;54.118;17.948;2023-02-03T22:57:04;14.17;;;6.50;;
18592;SDS011;9426;54.118;17.948;2023-02-03T23:02:28;10.77;;;5.73;;
18592;SDS011;9426;54.118;17.948;2023-02-03T23:07:52;12.13;;;5.80;;
18592;SDS011;9426;54.118;17.948;2023-02-03T23:13:17;13.63;;;5.17;;
18592;SDS011;9426;54.118;17.948;2023-02-03T23:18:41;10.00;;;4.37;;
18592;SDS011;9426;54.118;17.948;2023-02-03T23:24:06;8.63;;;4.63;;
18592;SDS011;9426;54.118;17.948;2023-02-03T23:29:32;10.33;;;4.27;;
18592;SDS011;9426;54.118;17.948;2023-02-03T23:34:58;9.93;;;4.43;;
18592;SDS011;9426;54.118;17.948;2023-02-03T23:40:39;11.40;;;6.00;;
18592;SDS011;9426;54.118;17.948;2023-02-03T23:46:05;13.20;;;5.23;;
18592;SDS011;9426;54.118;17.948;2023-02-03T23:51:28;10.27;;;4.77;;
18592;SDS011;9426;54.118;17.948;2023-02-03T23:56:52;27.37;;;10.03;;
